createdAt,value
2019-01-19T00:00:30.508Z,3.9
2019-01-19T00:01:30.862Z,3.89
2019-01-19T00:02:30.558Z,3.89
2019-01-19T00:03:30.784Z,3.89
2019-01-19T00:04:30.461Z,3.9
2019-01-19T00:05:30.411Z,3.89
2019-01-19T00:06:30.403Z,3.9
2019-01-19T00:07:30.415Z,3.91
2019-01-19T00:08:30.458Z,3.9
2019-01-19T00:09:30.427Z,3.9
2019-01-19T00:10:31.166Z,3.89
2019-01-19T00:11:30.404Z,3.88
2019-01-19T00:12:30.727Z,3.88
2019-01-19T00:13:30.528Z,3.88
2019-01-19T00:14:30.535Z,3.89
2019-01-19T00:15:30.789Z,3.88
2019-01-19T00:16:30.457Z,3.88
2019-01-19T00:17:30.472Z,3.88
2019-01-19T00:18:30.504Z,3.88
2019-01-19T00:19:30.487Z,3.9
2019-01-19T00:20:30.423Z,3.87
2019-01-19T00:21:30.506Z,3.85
2019-01-19T00:22:31.231Z,3.85
2019-01-19T00:23:30.826Z,3.86
2019-01-19T00:24:32.195Z,3.86
2019-01-19T00:25:30.380Z,3.86
2019-01-19T00:26:31.387Z,3.86
2019-01-19T00:27:31.163Z,3.84
2019-01-19T00:28:30.745Z,3.83
2019-01-19T00:29:30.730Z,3.84
2019-01-19T00:30:30.495Z,3.86
2019-01-19T00:31:31.214Z,3.87
2019-01-19T00:32:30.867Z,3.87
2019-01-19T00:33:31.295Z,3.85
2019-01-19T00:34:34.501Z,3.84
2019-01-19T00:35:31.834Z,3.85
2019-01-19T00:36:30.811Z,3.88
2019-01-19T00:37:30.466Z,3.85
2019-01-19T00:38:32.187Z,3.85
2019-01-19T00:39:31.639Z,3.86
2019-01-19T00:40:30.634Z,3.87
2019-01-19T00:41:31.132Z,3.85
2019-01-19T00:42:30.558Z,3.85
2019-01-19T00:43:30.587Z,3.85
2019-01-19T00:44:31.205Z,3.83
2019-01-19T00:45:30.666Z,3.82
2019-01-19T00:46:30.462Z,3.82
2019-01-19T00:47:30.380Z,3.8
2019-01-19T00:48:30.414Z,3.8
2019-01-19T00:49:30.393Z,3.81
2019-01-19T00:50:30.360Z,3.79
2019-01-19T00:51:30.407Z,3.79
2019-01-19T00:52:30.492Z,3.8
2019-01-19T00:53:30.468Z,3.81
2019-01-19T00:54:30.557Z,3.79
2019-01-19T00:55:30.368Z,3.79
2019-01-19T00:56:30.646Z,3.8
2019-01-19T00:57:30.399Z,3.81
2019-01-19T00:58:30.648Z,3.79
2019-01-19T00:59:30.482Z,3.8
2019-01-19T01:00:30.330Z,3.81
2019-01-19T01:01:30.402Z,3.79
2019-01-19T01:02:30.545Z,3.79
2019-01-19T01:03:32.150Z,3.78
2019-01-19T01:04:30.895Z,3.79
2019-01-19T01:05:31.786Z,3.79
2019-01-19T01:06:30.839Z,3.79
2019-01-19T01:07:30.417Z,3.77
2019-01-19T01:08:30.317Z,3.77
2019-01-19T01:09:30.681Z,3.8
2019-01-19T01:10:30.729Z,3.79
2019-01-19T01:11:30.713Z,3.81
2019-01-19T01:12:30.530Z,3.79
2019-01-19T01:13:32.010Z,3.78
2019-01-19T01:14:31.175Z,3.77
2019-01-19T01:15:30.677Z,3.77
2019-01-19T01:16:30.294Z,3.79
2019-01-19T01:17:31.508Z,3.8
2019-01-19T01:18:30.672Z,3.79
2019-01-19T01:19:30.368Z,3.79
2019-01-19T01:20:30.349Z,3.81
2019-01-19T01:21:30.528Z,3.8
2019-01-19T01:22:31.221Z,3.8
2019-01-19T01:23:31.264Z,3.8
2019-01-19T01:24:30.261Z,3.8
2019-01-19T01:25:30.489Z,3.77
2019-01-19T01:26:30.541Z,3.76
2019-01-19T01:27:30.528Z,3.76
2019-01-19T01:28:30.294Z,3.76
2019-01-19T01:29:30.401Z,3.76
2019-01-19T01:30:30.562Z,3.76
2019-01-19T01:31:30.344Z,3.77
2019-01-19T01:32:30.513Z,3.75
2019-01-19T01:33:30.317Z,3.77
2019-01-19T01:34:30.435Z,3.79
2019-01-19T01:35:33.243Z,3.79
2019-01-19T01:36:30.588Z,3.8
2019-01-19T01:37:31.010Z,3.79
2019-01-19T01:38:31.065Z,3.78
2019-01-19T01:39:30.224Z,3.78
2019-01-19T01:40:30.848Z,3.77
2019-01-19T01:41:30.312Z,3.78
2019-01-19T01:42:30.556Z,3.78
2019-01-19T01:43:30.260Z,3.78
2019-01-19T01:44:30.276Z,3.78
2019-01-19T01:45:30.325Z,3.75
2019-01-19T01:46:30.251Z,3.77
2019-01-19T01:47:30.259Z,3.78
2019-01-19T01:48:30.304Z,3.76
2019-01-19T01:49:30.272Z,3.74
2019-01-19T01:50:30.355Z,3.74
2019-01-19T01:51:30.265Z,3.74
2019-01-19T01:52:30.804Z,3.75
2019-01-19T01:53:30.314Z,3.73
2019-01-19T01:54:30.351Z,3.72
2019-01-19T01:55:30.292Z,3.73
2019-01-19T01:56:30.412Z,3.72
2019-01-19T01:57:30.331Z,3.72
2019-01-19T01:58:30.440Z,3.71
2019-01-19T01:59:30.372Z,3.72
2019-01-19T02:00:30.271Z,3.72
2019-01-19T02:01:30.471Z,3.71
2019-01-19T02:02:30.286Z,3.73
2019-01-19T02:03:30.400Z,3.72
2019-01-19T02:04:30.223Z,3.74
2019-01-19T02:05:30.376Z,3.74
2019-01-19T02:06:30.268Z,3.71
2019-01-19T02:07:30.207Z,3.71
2019-01-19T02:08:30.628Z,3.7
2019-01-19T02:09:30.290Z,3.73
2019-01-19T02:10:30.263Z,3.74
2019-01-19T02:11:30.555Z,3.73
2019-01-19T02:12:30.385Z,3.74
2019-01-19T02:13:30.362Z,3.74
2019-01-19T02:14:30.437Z,3.73
2019-01-19T02:15:30.686Z,3.73
2019-01-19T02:16:31.835Z,3.75
2019-01-19T02:17:29.998Z,3.73
2019-01-19T02:18:30.250Z,3.74
2019-01-19T02:19:30.347Z,3.73
2019-01-19T02:20:30.276Z,3.72
2019-01-19T02:21:30.316Z,3.72
2019-01-19T02:22:30.728Z,3.73
2019-01-19T02:23:30.210Z,3.73
2019-01-19T02:24:30.204Z,3.72
2019-01-19T02:25:30.756Z,3.71
2019-01-19T02:26:30.207Z,3.72
2019-01-19T02:27:30.661Z,3.74
2019-01-19T02:28:30.214Z,3.74
2019-01-19T02:29:30.274Z,3.73
2019-01-19T02:30:30.244Z,3.74
2019-01-19T02:31:30.558Z,3.73
2019-01-19T02:32:30.360Z,3.72
2019-01-19T02:33:30.228Z,3.71
2019-01-19T02:34:32.016Z,3.72
2019-01-19T02:35:30.255Z,3.71
2019-01-19T02:36:31.275Z,3.71
2019-01-19T02:37:30.285Z,3.73
2019-01-19T02:38:30.300Z,3.73
2019-01-19T02:39:30.200Z,3.74
2019-01-19T02:40:30.183Z,3.74
2019-01-19T02:41:30.409Z,3.75
2019-01-19T02:42:30.589Z,3.72
2019-01-19T02:43:30.239Z,3.71
2019-01-19T02:44:30.132Z,3.7
2019-01-19T02:45:30.481Z,3.71
2019-01-19T02:46:32.027Z,3.71
2019-01-19T02:47:30.501Z,3.71
2019-01-19T02:48:30.184Z,3.7
2019-01-19T02:49:30.306Z,3.69
2019-01-19T02:50:30.739Z,3.69
2019-01-19T02:51:30.173Z,3.69
2019-01-19T02:52:30.428Z,3.69
2019-01-19T02:53:30.334Z,3.68
2019-01-19T02:54:30.309Z,3.69
2019-01-19T02:55:30.244Z,3.68
2019-01-19T02:56:30.625Z,3.68
2019-01-19T02:57:30.277Z,3.68
2019-01-19T02:58:30.270Z,3.68
2019-01-19T02:59:30.598Z,3.69
2019-01-19T03:00:30.176Z,3.7
2019-01-19T03:01:30.130Z,3.7
2019-01-19T03:02:30.263Z,3.71
2019-01-19T03:03:30.355Z,3.71
2019-01-19T03:04:30.208Z,3.68
2019-01-19T03:05:30.245Z,3.7
2019-01-19T03:06:30.153Z,3.69
2019-01-19T03:07:30.199Z,3.69
2019-01-19T03:08:30.326Z,3.7
2019-01-19T03:09:30.327Z,3.69
2019-01-19T03:10:30.520Z,3.68
2019-01-19T03:11:30.491Z,3.67
2019-01-19T03:12:30.203Z,3.67
2019-01-19T03:13:30.710Z,3.67
2019-01-19T03:14:30.295Z,3.67
2019-01-19T03:15:31.814Z,3.67
2019-01-19T03:16:30.112Z,3.67
2019-01-19T03:17:30.114Z,3.66
2019-01-19T03:18:30.140Z,3.67
2019-01-19T03:19:30.224Z,3.66
2019-01-19T03:20:30.183Z,3.66
2019-01-19T03:21:30.126Z,3.65
2019-01-19T03:22:30.253Z,3.65
2019-01-19T03:23:30.388Z,3.67
2019-01-19T03:24:31.367Z,3.66
2019-01-19T03:25:30.137Z,3.66
2019-01-19T03:26:30.379Z,3.67
2019-01-19T03:27:30.178Z,3.67
2019-01-19T03:28:30.222Z,3.7
2019-01-19T03:29:30.302Z,3.68
2019-01-19T03:30:30.163Z,3.67
2019-01-19T03:31:30.233Z,3.67
2019-01-19T03:32:30.248Z,3.65
2019-01-19T03:33:30.148Z,3.66
2019-01-19T03:34:30.199Z,3.67
2019-01-19T03:35:30.120Z,3.67
2019-01-19T03:36:30.249Z,3.66
2019-01-19T03:37:30.120Z,3.66
2019-01-19T03:38:30.213Z,3.65
2019-01-19T03:39:30.229Z,3.67
2019-01-19T03:40:30.215Z,3.68
2019-01-19T03:41:30.259Z,3.68
2019-01-19T03:42:30.159Z,3.66
2019-01-19T03:43:30.305Z,3.65
2019-01-19T03:44:30.318Z,3.65
2019-01-19T03:45:30.290Z,3.66
2019-01-19T03:46:30.200Z,3.67
2019-01-19T03:47:30.424Z,3.66
2019-01-19T03:48:30.560Z,3.65
2019-01-19T03:49:30.435Z,3.66
2019-01-19T03:50:30.209Z,3.64
2019-01-19T03:51:30.317Z,3.63
2019-01-19T03:52:30.157Z,3.65
2019-01-19T03:53:30.186Z,3.63
2019-01-19T03:54:30.080Z,3.64
2019-01-19T03:55:30.335Z,3.65
2019-01-19T03:56:30.094Z,3.65
2019-01-19T03:57:30.104Z,3.63
2019-01-19T03:58:30.244Z,3.63
2019-01-19T03:59:30.941Z,3.63
2019-01-19T04:00:30.114Z,3.62
2019-01-19T04:01:30.131Z,3.62
2019-01-19T04:02:30.313Z,3.62
2019-01-19T04:03:30.349Z,3.62
2019-01-19T04:04:31.880Z,3.62
2019-01-19T04:05:30.122Z,3.62
2019-01-19T04:06:30.168Z,3.61
2019-01-19T04:07:30.042Z,3.62
2019-01-19T04:08:30.142Z,3.62
2019-01-19T04:09:30.192Z,3.61
2019-01-19T04:10:30.089Z,3.64
2019-01-19T04:11:30.386Z,3.62
2019-01-19T04:12:30.104Z,3.61
2019-01-19T04:13:30.189Z,3.63
2019-01-19T04:14:30.297Z,3.62
2019-01-19T04:15:30.107Z,3.62
2019-01-19T04:16:30.312Z,3.61
2019-01-19T04:17:30.261Z,3.62
2019-01-19T04:18:30.283Z,3.63
2019-01-19T04:19:30.310Z,3.63
2019-01-19T04:20:30.225Z,3.61
2019-01-19T04:21:30.342Z,3.61
2019-01-19T04:22:30.087Z,3.61
2019-01-19T04:23:30.657Z,3.61
2019-01-19T04:24:30.352Z,3.61
2019-01-19T04:25:30.132Z,3.6
2019-01-19T04:26:30.178Z,3.61
2019-01-19T04:27:30.379Z,3.6
2019-01-19T04:28:30.647Z,3.62
2019-01-19T04:29:30.500Z,3.6
2019-01-19T04:30:30.307Z,3.6
2019-01-19T04:31:30.508Z,3.6
2019-01-19T04:32:30.081Z,3.61
2019-01-19T04:33:30.236Z,3.6
2019-01-19T04:34:30.158Z,3.6
2019-01-19T04:35:30.114Z,3.6
2019-01-19T04:36:30.216Z,3.6
2019-01-19T04:37:30.053Z,3.6
2019-01-19T04:38:30.057Z,3.59
2019-01-19T04:39:30.070Z,3.58
2019-01-19T04:40:30.152Z,3.6
2019-01-19T04:41:30.214Z,3.6
2019-01-19T04:42:30.113Z,3.6
2019-01-19T04:43:30.276Z,3.6
2019-01-19T04:44:30.022Z,3.59
2019-01-19T04:45:30.138Z,3.59
2019-01-19T04:46:30.031Z,3.58
2019-01-19T04:47:30.525Z,3.59
2019-01-19T04:48:30.254Z,3.58
2019-01-19T04:49:30.115Z,3.58
2019-01-19T04:50:30.015Z,3.57
2019-01-19T04:51:30.080Z,3.58
2019-01-19T04:52:30.946Z,3.58
2019-01-19T04:53:30.236Z,3.58
2019-01-19T04:54:30.109Z,3.57
2019-01-19T04:55:30.251Z,3.58
2019-01-19T04:56:30.055Z,3.58
2019-01-19T04:57:29.998Z,3.57
2019-01-19T04:58:30.290Z,3.57
2019-01-19T04:59:30.122Z,3.59
2019-01-19T05:00:30.080Z,3.59
2019-01-19T05:01:31.538Z,3.59
2019-01-19T05:02:31.817Z,3.58
2019-01-19T05:03:29.974Z,3.57
2019-01-19T05:04:30.125Z,3.56
2019-01-19T05:05:30.321Z,3.57
2019-01-19T05:06:30.964Z,3.59
2019-01-19T05:07:30.097Z,3.59
2019-01-19T05:08:29.999Z,3.58
2019-01-19T05:09:29.939Z,3.61
2019-01-19T05:10:29.974Z,3.6
2019-01-19T05:11:30.016Z,3.61
2019-01-19T05:12:30.134Z,3.6
2019-01-19T05:13:30.377Z,3.59
2019-01-19T05:14:30.090Z,3.58
2019-01-19T05:15:30.214Z,3.6
2019-01-19T05:16:30.376Z,3.6
2019-01-19T05:17:30.070Z,3.59
2019-01-19T05:18:30.143Z,3.57
2019-01-19T05:19:29.946Z,3.58
2019-01-19T05:20:29.972Z,3.56
2019-01-19T05:21:30.104Z,3.59
2019-01-19T05:22:29.975Z,3.59
2019-01-19T05:23:30.045Z,3.57
2019-01-19T05:24:29.914Z,3.58
2019-01-19T05:25:29.995Z,3.56
2019-01-19T05:26:30.161Z,3.56
2019-01-19T05:27:29.968Z,3.57
2019-01-19T05:28:30.193Z,3.57
2019-01-19T05:29:30.212Z,3.56
2019-01-19T05:30:30.124Z,3.56
2019-01-19T05:31:29.889Z,3.55
2019-01-19T05:32:30.306Z,3.56
2019-01-19T05:33:30.257Z,3.57
2019-01-19T05:34:30.218Z,3.57
2019-01-19T05:35:30.019Z,3.58
2019-01-19T05:36:29.917Z,3.56
2019-01-19T05:37:29.986Z,3.56
2019-01-19T05:38:30.094Z,3.57
2019-01-19T05:39:29.895Z,3.56
2019-01-19T05:40:30.179Z,3.55
2019-01-19T05:41:30.039Z,3.57
2019-01-19T05:42:30.197Z,3.55
2019-01-19T05:43:30.280Z,3.54
2019-01-19T05:44:30.186Z,3.54
2019-01-19T05:45:30.018Z,3.54
2019-01-19T05:46:30.305Z,3.56
2019-01-19T05:47:29.903Z,3.55
2019-01-19T05:48:30.266Z,3.54
2019-01-19T05:49:30.429Z,3.53
2019-01-19T05:50:29.922Z,3.53
2019-01-19T05:51:30.227Z,3.53
2019-01-19T05:52:30.269Z,3.53
2019-01-19T05:53:30.070Z,3.55
2019-01-19T05:54:30.084Z,3.54
2019-01-19T05:55:29.916Z,3.56
2019-01-19T05:56:29.881Z,3.54
2019-01-19T05:57:30.197Z,3.53
2019-01-19T05:58:30.288Z,3.53
2019-01-19T05:59:29.907Z,3.52
2019-01-19T06:00:30.301Z,3.53
2019-01-19T06:01:30.273Z,3.52
2019-01-19T06:02:30.191Z,3.52
2019-01-19T06:03:30.218Z,3.53
2019-01-19T06:04:30.117Z,3.51
2019-01-19T06:05:30.164Z,3.52
2019-01-19T06:06:29.898Z,3.51
2019-01-19T06:07:30.407Z,3.52
2019-01-19T06:08:30.222Z,3.51
2019-01-19T06:09:29.879Z,3.5
2019-01-19T06:10:30.183Z,3.53
2019-01-19T06:11:29.868Z,3.52
2019-01-19T06:12:30.049Z,3.53
2019-01-19T06:13:29.937Z,3.51
2019-01-19T06:14:29.931Z,3.5
2019-01-19T06:15:30.318Z,3.52
2019-01-19T06:16:30.548Z,3.51
2019-01-19T06:17:29.984Z,3.53
2019-01-19T06:18:30.120Z,3.53
2019-01-19T06:19:29.842Z,3.53
2019-01-19T06:20:30.140Z,3.53
2019-01-19T06:21:30.167Z,3.53
2019-01-19T06:22:29.865Z,3.53
2019-01-19T06:23:30.273Z,3.53
2019-01-19T06:24:29.885Z,3.5
2019-01-19T06:25:29.865Z,3.5
2019-01-19T06:26:29.811Z,3.5
2019-01-19T06:27:30.696Z,3.49
2019-01-19T06:28:30.396Z,3.48
2019-01-19T06:29:29.935Z,3.47
2019-01-19T06:30:29.898Z,3.48
2019-01-19T06:31:31.670Z,3.47
2019-01-19T06:32:29.819Z,3.5
2019-01-19T06:33:29.911Z,3.49
2019-01-19T06:34:29.796Z,3.47
2019-01-19T06:35:29.911Z,3.47
2019-01-19T06:36:30.018Z,3.49
2019-01-19T06:37:29.949Z,3.5
2019-01-19T06:38:29.962Z,3.5
2019-01-19T06:39:30.012Z,3.5
2019-01-19T06:40:30.174Z,3.49
2019-01-19T06:41:29.849Z,3.48
2019-01-19T06:42:30.076Z,3.48
2019-01-19T06:43:29.862Z,3.49
2019-01-19T06:44:31.579Z,3.49
2019-01-19T06:45:29.925Z,3.48
2019-01-19T06:46:29.946Z,3.47
2019-01-19T06:47:30.637Z,3.47
2019-01-19T06:48:29.838Z,3.49
2019-01-19T06:49:29.874Z,3.49
2019-01-19T06:50:29.818Z,3.49
2019-01-19T06:51:29.801Z,3.49
2019-01-19T06:52:29.801Z,3.47
2019-01-19T06:53:29.906Z,3.46
2019-01-19T06:54:30.191Z,3.46
2019-01-19T06:55:29.975Z,3.46
2019-01-19T06:56:29.810Z,3.48
2019-01-19T06:57:30.212Z,3.47
2019-01-19T06:58:31.537Z,3.48
2019-01-19T06:59:29.779Z,3.46
2019-01-19T07:00:30.119Z,3.48
2019-01-19T07:01:29.912Z,3.48
2019-01-19T07:02:29.798Z,3.48
2019-01-19T07:03:30.128Z,3.48
2019-01-19T07:04:29.789Z,3.49
2019-01-19T07:05:29.767Z,3.49
2019-01-19T07:06:29.808Z,3.47
2019-01-19T07:07:29.922Z,3.49
2019-01-19T07:08:29.927Z,3.47
2019-01-19T07:09:29.783Z,3.48
2019-01-19T07:10:29.894Z,3.47
2019-01-19T07:11:29.783Z,3.45
2019-01-19T07:12:29.899Z,3.46
2019-01-19T07:13:29.805Z,3.48
2019-01-19T07:14:30.059Z,3.47
2019-01-19T07:15:29.789Z,3.48
2019-01-19T07:16:29.795Z,3.49
2019-01-19T07:17:29.775Z,3.47
2019-01-19T07:18:31.484Z,3.46
2019-01-19T07:19:29.865Z,3.48
2019-01-19T07:20:31.401Z,3.48
2019-01-19T07:21:29.857Z,3.49
2019-01-19T07:22:29.886Z,3.49
2019-01-19T07:23:29.815Z,3.48
2019-01-19T07:24:29.953Z,3.48
2019-01-19T07:25:29.745Z,3.48
2019-01-19T07:26:29.851Z,3.47
2019-01-19T07:27:30.223Z,3.49
2019-01-19T07:28:30.130Z,3.5
2019-01-19T07:29:30.532Z,3.48
2019-01-19T07:30:30.228Z,3.47
2019-01-19T07:31:29.833Z,3.45
2019-01-19T07:32:29.956Z,3.48
2019-01-19T07:33:30.862Z,3.47
2019-01-19T07:34:29.820Z,3.48
2019-01-19T07:35:29.986Z,3.46
2019-01-19T07:36:29.810Z,3.46
2019-01-19T07:37:29.817Z,3.45
2019-01-19T07:38:30.207Z,3.45
2019-01-19T07:39:30.203Z,3.45
2019-01-19T07:40:29.736Z,3.47
2019-01-19T07:41:29.727Z,3.46
2019-01-19T07:42:29.646Z,3.47
2019-01-19T07:43:29.775Z,3.48
2019-01-19T07:44:29.717Z,3.49
2019-01-19T07:45:29.763Z,3.48
2019-01-19T07:46:29.934Z,3.48
2019-01-19T07:47:29.749Z,3.47
2019-01-19T07:48:29.836Z,3.46
2019-01-19T07:49:30.877Z,3.46
2019-01-19T07:50:30.132Z,3.48
2019-01-19T07:51:30.599Z,3.46
2019-01-19T07:52:29.881Z,3.46
2019-01-19T07:53:29.691Z,3.46
2019-01-19T07:54:29.676Z,3.5
2019-01-19T07:55:29.955Z,3.49
2019-01-19T07:56:29.855Z,3.49
2019-01-19T07:57:31.780Z,3.47
2019-01-19T07:58:29.919Z,3.49
2019-01-19T07:59:30.128Z,3.47
2019-01-19T08:00:29.733Z,3.49
2019-01-19T08:01:29.676Z,3.49
2019-01-19T08:02:29.838Z,3.5
2019-01-19T08:03:29.791Z,3.5
2019-01-19T08:04:30.390Z,3.48
2019-01-19T08:05:29.734Z,3.5
2019-01-19T08:06:30.505Z,3.5
2019-01-19T08:07:29.832Z,3.51
2019-01-19T08:08:31.542Z,3.52
2019-01-19T08:09:29.903Z,3.5
2019-01-19T08:10:31.581Z,3.5
2019-01-19T08:11:29.824Z,3.51
2019-01-19T08:12:29.974Z,3.51
2019-01-19T08:13:29.931Z,3.52
2019-01-19T08:14:29.671Z,3.51
2019-01-19T08:15:30.152Z,3.51
2019-01-19T08:16:29.843Z,3.52
2019-01-19T08:17:29.796Z,3.52
2019-01-19T08:18:29.698Z,3.52
2019-01-19T08:19:30.190Z,3.52
2019-01-19T08:20:30.187Z,3.53
2019-01-19T08:21:30.618Z,3.51
2019-01-19T08:22:29.814Z,3.52
2019-01-19T08:23:30.720Z,3.52
2019-01-19T08:24:30.348Z,3.53
2019-01-19T08:25:29.934Z,3.52
2019-01-19T08:26:29.667Z,3.53
2019-01-19T08:27:29.778Z,3.53
2019-01-19T08:28:29.735Z,3.55
2019-01-19T08:29:30.273Z,3.54
2019-01-19T08:30:29.881Z,3.55
2019-01-19T08:31:36.346Z,3.55
2019-01-19T08:32:29.792Z,3.55
2019-01-19T08:33:29.631Z,3.56
2019-01-19T08:34:29.706Z,3.57
2019-01-19T08:35:29.870Z,3.55
2019-01-19T08:36:29.751Z,3.56
2019-01-19T08:37:29.742Z,3.53
2019-01-19T08:38:29.640Z,3.53
2019-01-19T08:39:29.699Z,3.52
2019-01-19T08:40:29.776Z,3.54
2019-01-19T08:41:29.940Z,3.54
2019-01-19T08:42:29.666Z,3.55
2019-01-19T08:43:29.661Z,3.54
2019-01-19T08:44:29.682Z,3.53
2019-01-19T08:45:29.698Z,3.52
2019-01-19T08:46:29.653Z,3.53
2019-01-19T08:47:30.218Z,3.53
2019-01-19T08:48:29.686Z,3.56
2019-01-19T08:49:29.646Z,3.56
2019-01-19T08:50:29.615Z,3.56
2019-01-19T08:51:29.880Z,3.57
2019-01-19T08:52:30.350Z,3.56
2019-01-19T08:53:29.688Z,3.56
2019-01-19T08:54:29.891Z,3.56
2019-01-19T08:55:29.845Z,3.56
2019-01-19T08:56:29.807Z,3.59
2019-01-19T08:57:29.988Z,3.57
2019-01-19T08:58:30.231Z,3.59
2019-01-19T08:59:29.586Z,3.58
2019-01-19T09:00:29.749Z,3.58
2019-01-19T09:01:29.953Z,3.59
2019-01-19T09:02:29.637Z,3.58
2019-01-19T09:03:29.611Z,3.56
2019-01-19T09:04:30.762Z,3.57
2019-01-19T09:05:29.741Z,3.55
2019-01-19T09:06:29.596Z,3.55
2019-01-19T09:07:34.359Z,3.55
2019-01-19T09:08:29.821Z,3.59
2019-01-19T09:09:29.721Z,3.59
2019-01-19T09:10:29.841Z,3.59
2019-01-19T09:11:29.746Z,3.58
2019-01-19T09:12:29.894Z,3.57
2019-01-19T09:13:30.027Z,3.58
2019-01-19T09:14:29.656Z,3.57
2019-01-19T09:15:30.319Z,3.57
2019-01-19T09:16:29.895Z,3.58
2019-01-19T09:17:29.709Z,3.59
2019-01-19T09:18:29.766Z,3.59
2019-01-19T09:19:29.604Z,3.6
2019-01-19T09:20:29.852Z,3.58
2019-01-19T09:21:29.917Z,3.59
2019-01-19T09:22:29.930Z,3.6
2019-01-19T09:23:29.816Z,3.6
2019-01-19T09:24:29.726Z,3.6
2019-01-19T09:25:29.812Z,3.6
2019-01-19T09:26:29.937Z,3.61
2019-01-19T09:27:31.457Z,3.6
2019-01-19T09:28:29.747Z,3.59
2019-01-19T09:29:29.739Z,3.59
2019-01-19T09:30:29.582Z,3.61
2019-01-19T09:31:29.712Z,3.6
2019-01-19T09:32:29.596Z,3.62
2019-01-19T09:33:29.653Z,3.62
2019-01-19T09:34:30.419Z,3.63
2019-01-19T09:35:29.822Z,3.63
2019-01-19T09:36:29.651Z,3.65
2019-01-19T09:37:30.420Z,3.63
2019-01-19T09:38:29.742Z,3.62
2019-01-19T09:39:32.905Z,3.64
2019-01-19T09:40:29.857Z,3.64
2019-01-19T09:41:32.487Z,3.64
2019-01-19T09:42:31.595Z,3.66
2019-01-19T09:43:29.579Z,3.67
2019-01-19T09:44:51.313Z,3.64
2019-01-19T09:45:29.852Z,3.64
2019-01-19T09:46:30.257Z,3.64
2019-01-19T09:47:29.736Z,3.66
2019-01-19T09:48:32.180Z,3.64
2019-01-19T09:49:29.809Z,3.65
2019-01-19T09:50:30.352Z,3.66
2019-01-19T09:51:30.635Z,3.67
2019-01-19T09:52:29.723Z,3.69
2019-01-19T09:53:31.405Z,3.68
2019-01-19T09:54:30.382Z,3.69
2019-01-19T09:55:30.280Z,3.67
2019-01-19T09:56:32.747Z,3.68
2019-01-19T09:57:29.507Z,3.69
2019-01-19T09:58:30.194Z,3.67
2019-01-19T09:59:29.620Z,3.7
2019-01-19T10:00:45.999Z,3.69
2019-01-19T10:01:29.562Z,3.71
2019-01-19T10:02:29.526Z,3.71
2019-01-19T10:03:29.598Z,3.7
2019-01-19T10:04:29.543Z,3.7
2019-01-19T10:05:29.739Z,3.71
2019-01-19T10:06:29.918Z,3.71
2019-01-19T10:07:29.654Z,3.7
2019-01-19T10:08:29.632Z,3.71
2019-01-19T10:09:29.790Z,3.68
2019-01-19T10:10:29.563Z,3.69
2019-01-19T10:11:29.746Z,3.72
2019-01-19T10:12:29.550Z,3.69
2019-01-19T10:13:29.983Z,3.7
2019-01-19T10:14:29.548Z,3.73
2019-01-19T10:15:29.479Z,3.73
2019-01-19T10:16:29.629Z,3.71
2019-01-19T10:17:29.570Z,3.71
2019-01-19T10:18:29.472Z,3.7
2019-01-19T10:20:29.508Z,3.74
2019-01-19T10:21:29.930Z,3.71
2019-01-19T10:22:29.704Z,3.73
2019-01-19T10:23:29.496Z,3.74
2019-01-19T10:24:29.460Z,3.74
2019-01-19T10:25:29.873Z,3.76
2019-01-19T10:26:29.754Z,3.74
2019-01-19T10:27:29.514Z,3.76
2019-01-19T10:28:29.412Z,3.74
2019-01-19T10:29:29.528Z,3.76
2019-01-19T10:30:29.609Z,3.76
2019-01-19T10:31:29.634Z,3.77
2019-01-19T10:32:29.472Z,3.76
2019-01-19T10:33:29.476Z,3.77
2019-01-19T10:34:29.563Z,3.76
2019-01-19T10:35:29.844Z,3.73
2019-01-19T10:36:29.829Z,3.72
2019-01-19T10:37:29.648Z,3.73
2019-01-19T10:38:29.431Z,3.73
2019-01-19T10:39:29.531Z,3.76
2019-01-19T10:40:29.822Z,3.74
2019-01-19T10:41:29.574Z,3.76
2019-01-19T10:42:30.049Z,3.74
2019-01-19T10:43:29.737Z,3.71
2019-01-19T10:44:29.490Z,3.76
2019-01-19T10:45:29.438Z,3.78
2019-01-19T10:46:29.471Z,3.74
2019-01-19T10:47:29.670Z,3.76
2019-01-19T10:49:29.743Z,3.74
2019-01-19T10:50:29.722Z,3.78
2019-01-19T10:51:29.705Z,3.78
2019-01-19T10:52:29.774Z,3.8
2019-01-19T10:53:29.567Z,3.81
2019-01-19T10:54:29.555Z,3.78
2019-01-19T10:55:29.657Z,3.79
2019-01-19T10:56:29.707Z,3.79
2019-01-19T10:57:29.542Z,3.77
2019-01-19T10:58:29.472Z,3.8
2019-01-19T10:59:29.507Z,3.81
2019-01-19T11:00:30.416Z,3.81
2019-01-19T11:01:31.258Z,3.81
2019-01-19T11:02:29.819Z,3.82
2019-01-19T11:03:29.411Z,3.81
2019-01-19T11:04:29.454Z,3.81
2019-01-19T11:05:29.695Z,3.78
2019-01-19T11:06:29.665Z,3.81
2019-01-19T11:07:29.644Z,3.81
2019-01-19T11:08:29.626Z,3.81
2019-01-19T11:09:30.616Z,3.8
2019-01-19T11:10:29.944Z,3.79
2019-01-19T11:11:29.196Z,3.8
2019-01-19T11:12:29.449Z,3.79
2019-01-19T11:13:29.451Z,3.81
2019-01-19T11:14:29.477Z,3.8
2019-01-19T11:15:31.200Z,3.78
2019-01-19T11:16:29.522Z,3.78
2019-01-19T11:17:29.608Z,3.82
2019-01-19T11:18:31.578Z,3.85
2019-01-19T11:19:31.261Z,3.83
2019-01-19T11:20:29.768Z,3.85
2019-01-19T11:21:29.817Z,3.83
2019-01-19T11:22:29.517Z,3.8
2019-01-19T11:23:29.512Z,3.8
2019-01-19T11:24:29.427Z,3.85
2019-01-19T11:25:38.314Z,3.85
2019-01-19T11:28:29.610Z,3.77
2019-01-19T11:29:29.395Z,3.79
2019-01-19T11:30:32.057Z,3.83
2019-01-19T11:31:29.115Z,3.82
2019-01-19T11:32:30.654Z,3.81
2019-01-19T11:33:29.839Z,3.81
2019-01-19T11:34:30.777Z,3.81
2019-01-19T11:35:29.866Z,3.81
2019-01-19T11:36:31.812Z,3.82
2019-01-19T11:37:28.933Z,3.82
2019-01-19T11:38:29.993Z,3.8
2019-01-19T11:39:30.309Z,3.78
2019-01-19T11:41:40.089Z,3.79
2019-01-19T11:42:34.695Z,3.85
2019-01-19T11:43:29.164Z,3.82
2019-01-19T11:44:29.645Z,3.81
2019-01-19T11:45:29.412Z,3.78
2019-01-19T11:46:31.042Z,3.76
2019-01-19T11:47:30.716Z,3.82
2019-01-19T11:48:29.444Z,3.79
2019-01-19T11:49:29.492Z,3.77
2019-01-19T11:50:37.753Z,3.77
2019-01-19T11:51:29.337Z,3.79
2019-01-19T11:52:29.472Z,3.76
2019-01-19T11:53:30.955Z,3.78
2019-01-19T11:54:29.307Z,3.77
2019-01-19T11:55:29.823Z,3.76
2019-01-19T11:56:29.388Z,3.78
2019-01-19T11:57:29.830Z,3.76
2019-01-19T11:58:42.474Z,3.83
2019-01-19T11:59:29.375Z,3.85
2019-01-19T12:00:29.538Z,3.86
2019-01-19T12:02:29.328Z,3.87
2019-01-19T12:03:29.368Z,3.88
2019-01-19T12:04:30.248Z,3.88
2019-01-19T12:05:38.578Z,3.91
2019-01-19T12:07:42.238Z,3.81
2019-01-19T12:08:30.333Z,3.8
2019-01-19T12:09:29.363Z,3.7
2019-01-19T12:10:31.525Z,3.73
2019-01-19T12:11:32.549Z,3.74
2019-01-19T12:12:29.361Z,3.79
2019-01-19T12:13:29.369Z,3.75
2019-01-19T12:14:28.885Z,3.74
2019-01-19T12:15:30.577Z,3.75
2019-01-19T12:16:35.768Z,3.74
2019-01-19T12:18:38.339Z,3.76
2019-01-19T12:19:29.593Z,3.75
2019-01-19T12:20:48.529Z,3.73
2019-01-19T12:22:30.420Z,3.73
2019-01-19T12:23:40.494Z,3.72
2019-01-19T12:24:40.044Z,3.78
2019-01-19T12:25:31.419Z,3.76
2019-01-19T12:26:35.127Z,3.77
2019-01-19T12:27:31.181Z,3.79
2019-01-19T12:28:32.071Z,3.76
2019-01-19T12:29:32.495Z,3.8
2019-01-19T12:30:29.379Z,3.79
2019-01-19T12:31:30.940Z,3.8
2019-01-19T12:33:41.870Z,3.75
2019-01-19T12:34:29.205Z,3.78
2019-01-19T12:36:39.480Z,3.74
2019-01-19T12:37:29.283Z,3.73
2019-01-19T12:39:29.323Z,3.76
2019-01-19T12:40:31.914Z,3.76
2019-01-19T12:41:30.276Z,3.75
2019-01-19T12:42:29.285Z,3.73
2019-01-19T12:43:33.847Z,3.74
2019-01-19T12:44:48.846Z,3.7
2019-01-19T12:45:29.450Z,3.7
2019-01-19T12:47:30.592Z,3.74
2019-01-19T12:48:29.293Z,3.73
2019-01-19T12:49:29.333Z,3.74
2019-01-19T12:50:29.230Z,3.71
2019-01-19T12:51:38.617Z,3.74
2019-01-19T12:52:28.791Z,3.72
2019-01-19T12:53:31.599Z,3.74
2019-01-19T12:55:52.570Z,3.74
2019-01-19T13:00:44.823Z,3.78
2019-01-19T13:01:33.263Z,3.77
2019-01-19T13:02:29.364Z,3.74
2019-01-19T13:03:29.382Z,3.74
2019-01-19T13:04:29.641Z,3.72
2019-01-19T13:05:29.486Z,3.73
2019-01-19T13:06:29.362Z,3.74
2019-01-19T13:07:29.500Z,3.71
2019-01-19T13:08:34.954Z,3.74
2019-01-19T13:09:30.024Z,3.71
2019-01-19T13:10:29.442Z,3.76
2019-01-19T13:11:29.411Z,3.71
2019-01-19T13:12:30.113Z,3.73
2019-01-19T13:13:29.408Z,3.74
2019-01-19T13:14:29.204Z,3.74
2019-01-19T13:15:29.253Z,3.76
2019-01-19T13:16:29.578Z,3.76
2019-01-19T13:17:29.477Z,3.75
2019-01-19T13:18:29.419Z,3.77
2019-01-19T13:19:29.440Z,3.78
2019-01-19T13:20:29.465Z,3.79
2019-01-19T13:21:29.492Z,3.82
2019-01-19T13:22:29.386Z,3.84
2019-01-19T13:23:29.620Z,3.83
2019-01-19T13:24:29.517Z,3.82
2019-01-19T13:25:29.257Z,3.84
2019-01-19T13:26:29.529Z,3.85
2019-01-19T13:27:29.285Z,3.85
2019-01-19T13:28:29.662Z,3.86
2019-01-19T13:29:29.372Z,3.84
2019-01-19T13:30:29.533Z,3.8
2019-01-19T13:31:29.848Z,3.81
2019-01-19T13:32:29.734Z,3.81
2019-01-19T13:33:29.401Z,3.8
2019-01-19T13:34:29.811Z,3.79
2019-01-19T13:35:29.210Z,3.8
2019-01-19T13:36:31.210Z,3.78
2019-01-19T13:37:29.268Z,3.8
2019-01-19T13:38:29.206Z,3.76
2019-01-19T13:39:29.260Z,3.79